sensor_id;sensor_type;location;lat;lon;timestamp;pressure;altitude;pressure_sealevel;temperature;humidity
75247;BME280;63844;50.042;19.224;2023-03-01T00:00:23;100318.64;;;-3.90;75.49
75247;BME280;63844;50.042;19.224;2023-03-01T00:03:09;100317.38;;;-3.94;76.27
75247;BME280;63844;50.042;19.224;2023-03-01T00:05:36;100321.30;;;-3.96;77.13
75247;BME280;63844;50.042;19.224;2023-03-01T00:08:02;100315.75;;;-3.99;76.07
75247;BME280;63844;50.042;19.224;2023-03-01T00:10:29;100318.14;;;-4.00;75.60
75247;BME280;63844;50.042;19.224;2023-03-01T00:12:55;100322.46;;;-4.01;76.61
75247;BME280;63844;50.042;19.224;2023-03-01T00:15:22;100325.20;;;-4.03;76.14
75247;BME280;63844;50.042;19.224;2023-03-01T00:17:49;100324.14;;;-4.04;76.18
75247;BME280;63844;50.042;19.224;2023-03-01T00:20:15;100320.83;;;-4.07;76.09
75247;BME280;63844;50.042;19.224;2023-03-01T00:22:43;100320.61;;;-4.09;75.39
75247;BME280;63844;50.042;19.224;2023-03-01T00:25:09;100314.54;;;-4.10;75.85
75247;BME280;63844;50.042;19.224;2023-03-01T00:27:36;100313.98;;;-4.14;75.26
75247;BME280;63844;50.042;19.224;2023-03-01T00:30:02;100312.03;;;-4.17;75.21
75247;BME280;63844;50.042;19.224;2023-03-01T00:32:29;100309.54;;;-4.22;74.98
75247;BME280;63844;50.042;19.224;2023-03-01T00:34:55;100303.98;;;-4.23;74.91
75247;BME280;63844;50.042;19.224;2023-03-01T00:37:23;100301.86;;;-4.26;74.90
75247;BME280;63844;50.042;19.224;2023-03-01T00:39:50;100302.89;;;-4.27;76.08
75247;BME280;63844;50.042;19.224;2023-03-01T00:42:16;100301.11;;;-4.30;75.22
75247;BME280;63844;50.042;19.224;2023-03-01T00:44:43;100303.16;;;-4.32;75.13
75247;BME280;63844;50.042;19.224;2023-03-01T00:47:10;100302.42;;;-4.35;75.37
75247;BME280;63844;50.042;19.224;2023-03-01T00:49:36;100300.52;;;-4.36;75.61
75247;BME280;63844;50.042;19.224;2023-03-01T00:52:03;100295.98;;;-4.38;76.61
75247;BME280;63844;50.042;19.224;2023-03-01T00:54:29;100298.39;;;-4.39;75.59
75247;BME280;63844;50.042;19.224;2023-03-01T00:56:56;100296.65;;;-4.39;75.70
75247;BME280;63844;50.042;19.224;2023-03-01T00:59:22;100297.84;;;-4.41;75.68
75247;BME280;63844;50.042;19.224;2023-03-01T01:01:49;100297.63;;;-4.44;78.58
75247;BME280;63844;50.042;19.224;2023-03-01T01:04:15;100294.48;;;-4.45;79.98
75247;BME280;63844;50.042;19.224;2023-03-01T01:06:44;100287.93;;;-4.45;78.90
75247;BME280;63844;50.042;19.224;2023-03-01T01:09:14;100287.88;;;-4.49;76.81
75247;BME280;63844;50.042;19.224;2023-03-01T01:11:46;100289.41;;;-4.50;75.95
75247;BME280;63844;50.042;19.224;2023-03-01T01:14:13;100291.92;;;-4.54;76.08
75247;BME280;63844;50.042;19.224;2023-03-01T01:16:40;100293.97;;;-4.57;76.16
75247;BME280;63844;50.042;19.224;2023-03-01T01:19:06;100290.02;;;-4.55;76.62
75247;BME280;63844;50.042;19.224;2023-03-01T01:21:33;100284.15;;;-4.55;75.83
75247;BME280;63844;50.042;19.224;2023-03-01T01:24:00;100283.73;;;-4.59;77.04
75247;BME280;63844;50.042;19.224;2023-03-01T01:26:30;100282.86;;;-4.59;77.61
75247;BME280;63844;50.042;19.224;2023-03-01T01:28:58;100281.09;;;-4.62;75.93
75247;BME280;63844;50.042;19.224;2023-03-01T01:31:26;100275.16;;;-4.66;76.01
75247;BME280;63844;50.042;19.224;2023-03-01T01:33:56;100273.38;;;-4.69;75.85
75247;BME280;63844;50.042;19.224;2023-03-01T01:36:23;100270.80;;;-4.69;76.54
75247;BME280;63844;50.042;19.224;2023-03-01T01:38:50;100270.16;;;-4.65;76.32
75247;BME280;63844;50.042;19.224;2023-03-01T01:41:17;100271.34;;;-4.67;75.95
75247;BME280;63844;50.042;19.224;2023-03-01T01:44:08;100268.39;;;-4.68;76.07
75247;BME280;63844;50.042;19.224;2023-03-01T01:46:37;100265.98;;;-4.67;76.04
75247;BME280;63844;50.042;19.224;2023-03-01T01:49:28;100261.95;;;-4.71;77.82
75247;BME280;63844;50.042;19.224;2023-03-01T01:54:51;100257.31;;;-4.69;81.89
75247;BME280;63844;50.042;19.224;2023-03-01T01:57:23;100254.89;;;-4.70;77.33
75247;BME280;63844;50.042;19.224;2023-03-01T01:59:54;100254.55;;;-4.70;78.24
75247;BME280;63844;50.042;19.224;2023-03-01T02:02:23;100259.23;;;-4.69;77.65
75247;BME280;63844;50.042;19.224;2023-03-01T02:04:53;100260.20;;;-4.72;76.88
75247;BME280;63844;50.042;19.224;2023-03-01T02:07:25;100258.73;;;-4.78;80.58
75247;BME280;63844;50.042;19.224;2023-03-01T02:09:52;100256.33;;;-4.77;77.40
75247;BME280;63844;50.042;19.224;2023-03-01T02:12:22;100254.56;;;-4.79;77.93
75247;BME280;63844;50.042;19.224;2023-03-01T02:14:49;100250.05;;;-4.81;77.19
75247;BME280;63844;50.042;19.224;2023-03-01T02:17:17;100251.73;;;-4.84;77.41
75247;BME280;63844;50.042;19.224;2023-03-01T02:20:10;100250.23;;;-4.82;78.25
75247;BME280;63844;50.042;19.224;2023-03-01T02:22:43;100245.70;;;-4.83;77.03
75247;BME280;63844;50.042;19.224;2023-03-01T02:30:23;100244.63;;;-4.85;78.85
75247;BME280;63844;50.042;19.224;2023-03-01T02:32:54;100242.53;;;-4.87;77.36
75247;BME280;63844;50.042;19.224;2023-03-01T02:35:34;100241.80;;;-4.89;77.29
75247;BME280;63844;50.042;19.224;2023-03-01T02:38:03;100243.38;;;-4.88;80.50
75247;BME280;63844;50.042;19.224;2023-03-01T02:40:33;100245.65;;;-4.86;77.63
75247;BME280;63844;50.042;19.224;2023-03-01T02:43:00;100249.07;;;-4.88;78.14
75247;BME280;63844;50.042;19.224;2023-03-01T02:45:27;100248.59;;;-4.85;80.11
75247;BME280;63844;50.042;19.224;2023-03-01T02:47:55;100246.48;;;-4.88;77.00
75247;BME280;63844;50.042;19.224;2023-03-01T02:53:13;100250.17;;;-4.95;77.25
75247;BME280;63844;50.042;19.224;2023-03-01T02:55:43;100251.17;;;-4.97;77.67
75247;BME280;63844;50.042;19.224;2023-03-01T02:58:09;100251.84;;;-4.98;77.10
75247;BME280;63844;50.042;19.224;2023-03-01T03:00:38;100247.67;;;-5.00;79.26
75247;BME280;63844;50.042;19.224;2023-03-01T03:03:06;100239.58;;;-4.99;80.58
75247;BME280;63844;50.042;19.224;2023-03-01T03:05:34;100239.88;;;-5.02;77.54
75247;BME280;63844;50.042;19.224;2023-03-01T03:08:02;100239.95;;;-5.07;76.97
75247;BME280;63844;50.042;19.224;2023-03-01T03:10:31;100240.58;;;-5.10;77.43
75247;BME280;63844;50.042;19.224;2023-03-01T03:13:04;100240.27;;;-5.09;77.54
75247;BME280;63844;50.042;19.224;2023-03-01T03:15:32;100238.61;;;-5.05;78.30
75247;BME280;63844;50.042;19.224;2023-03-01T03:18:04;100239.83;;;-5.04;76.65
75247;BME280;63844;50.042;19.224;2023-03-01T03:20:31;100241.09;;;-5.11;77.13
75247;BME280;63844;50.042;19.224;2023-03-01T03:22:58;100239.86;;;-5.12;77.20
75247;BME280;63844;50.042;19.224;2023-03-01T03:25:27;100240.02;;;-5.13;77.27
75247;BME280;63844;50.042;19.224;2023-03-01T03:27:55;100238.52;;;-5.21;81.02
75247;BME280;63844;50.042;19.224;2023-03-01T03:30:30;100234.09;;;-5.26;79.56
75247;BME280;63844;50.042;19.224;2023-03-01T03:32:58;100235.79;;;-5.29;77.81
75247;BME280;63844;50.042;19.224;2023-03-01T03:35:30;100240.04;;;-5.32;77.46
75247;BME280;63844;50.042;19.224;2023-03-01T03:38:09;100238.68;;;-5.30;79.28
75247;BME280;63844;50.042;19.224;2023-03-01T03:40:46;100234.75;;;-5.29;77.64
75247;BME280;63844;50.042;19.224;2023-03-01T03:43:21;100237.98;;;-5.30;77.81
75247;BME280;63844;50.042;19.224;2023-03-01T03:45:49;100236.90;;;-5.33;77.88
75247;BME280;63844;50.042;19.224;2023-03-01T03:48:17;100235.15;;;-5.35;77.77
75247;BME280;63844;50.042;19.224;2023-03-01T03:50:47;100232.48;;;-5.38;79.55
75247;BME280;63844;50.042;19.224;2023-03-01T03:53:14;100224.72;;;-5.39;81.18
75247;BME280;63844;50.042;19.224;2023-03-01T03:55:40;100225.02;;;-5.42;78.23
75247;BME280;63844;50.042;19.224;2023-03-01T03:58:08;100223.42;;;-5.44;77.68
75247;BME280;63844;50.042;19.224;2023-03-01T04:00:37;100221.16;;;-5.45;77.75
75247;BME280;63844;50.042;19.224;2023-03-01T04:03:04;100219.45;;;-5.44;79.02
75247;BME280;63844;50.042;19.224;2023-03-01T04:05:32;100214.43;;;-5.45;78.13
75247;BME280;63844;50.042;19.224;2023-03-01T04:07:59;100212.01;;;-5.46;77.48
75247;BME280;63844;50.042;19.224;2023-03-01T04:10:32;100218.88;;;-5.48;78.11
75247;BME280;63844;50.042;19.224;2023-03-01T04:12:58;100224.20;;;-5.48;80.58
75247;BME280;63844;50.042;19.224;2023-03-01T04:15:26;100228.86;;;-5.48;78.84
75247;BME280;63844;50.042;19.224;2023-03-01T04:17:54;100230.94;;;-5.48;81.16
75247;BME280;63844;50.042;19.224;2023-03-01T04:20:21;100233.90;;;-5.46;79.90
75247;BME280;63844;50.042;19.224;2023-03-01T04:22:52;100238.18;;;-5.48;78.23
75247;BME280;63844;50.042;19.224;2023-03-01T04:25:23;100243.40;;;-5.46;79.14
75247;BME280;63844;50.042;19.224;2023-03-01T04:27:50;100247.61;;;-5.43;81.39
75247;BME280;63844;50.042;19.224;2023-03-01T04:30:17;100246.87;;;-5.45;80.46
75247;BME280;63844;50.042;19.224;2023-03-01T04:32:43;100243.13;;;-5.51;82.42
75247;BME280;63844;50.042;19.224;2023-03-01T04:35:10;100242.21;;;-5.54;82.17
75247;BME280;63844;50.042;19.224;2023-03-01T04:37:36;100238.02;;;-5.57;78.78
75247;BME280;63844;50.042;19.224;2023-03-01T04:40:03;100235.58;;;-5.58;81.42
75247;BME280;63844;50.042;19.224;2023-03-01T04:42:42;100234.58;;;-5.56;80.32
75247;BME280;63844;50.042;19.224;2023-03-01T04:45:09;100237.61;;;-5.60;78.70
75247;BME280;63844;50.042;19.224;2023-03-01T04:47:43;100236.91;;;-5.60;79.51
75247;BME280;63844;50.042;19.224;2023-03-01T04:50:12;100236.30;;;-5.56;78.42
75247;BME280;63844;50.042;19.224;2023-03-01T04:52:39;100238.29;;;-5.61;78.51
75247;BME280;63844;50.042;19.224;2023-03-01T04:55:06;100237.75;;;-5.62;79.56
75247;BME280;63844;50.042;19.224;2023-03-01T04:57:33;100235.02;;;-5.60;78.56
75247;BME280;63844;50.042;19.224;2023-03-01T04:59:59;100232.59;;;-5.60;77.98
75247;BME280;63844;50.042;19.224;2023-03-01T05:02:26;100229.15;;;-5.60;78.29
75247;BME280;63844;50.042;19.224;2023-03-01T05:04:53;100228.95;;;-5.62;78.28
75247;BME280;63844;50.042;19.224;2023-03-01T05:07:26;100230.79;;;-5.66;78.36
75247;BME280;63844;50.042;19.224;2023-03-01T05:09:52;100223.55;;;-5.66;78.30
75247;BME280;63844;50.042;19.224;2023-03-01T05:12:20;100218.02;;;-5.66;78.23
75247;BME280;63844;50.042;19.224;2023-03-01T05:14:47;100220.92;;;-5.67;77.91
75247;BME280;63844;50.042;19.224;2023-03-01T05:17:14;100220.35;;;-5.70;78.60
75247;BME280;63844;50.042;19.224;2023-03-01T05:19:40;100216.58;;;-5.69;81.57
75247;BME280;63844;50.042;19.224;2023-03-01T05:22:08;100219.16;;;-5.69;79.34
75247;BME280;63844;50.042;19.224;2023-03-01T05:24:35;100220.15;;;-5.72;80.67
75247;BME280;63844;50.042;19.224;2023-03-01T05:27:03;100216.54;;;-5.71;82.29
75247;BME280;63844;50.042;19.224;2023-03-01T05:29:31;100215.38;;;-5.69;81.62
75247;BME280;63844;50.042;19.224;2023-03-01T05:32:02;100219.33;;;-5.69;78.86
75247;BME280;63844;50.042;19.224;2023-03-01T05:34:31;100221.21;;;-5.70;78.54
75247;BME280;63844;50.042;19.224;2023-03-01T05:36:59;100218.14;;;-5.69;81.05
75247;BME280;63844;50.042;19.224;2023-03-01T05:39:27;100218.02;;;-5.67;80.43
75247;BME280;63844;50.042;19.224;2023-03-01T05:41:59;100215.23;;;-5.68;79.04
75247;BME280;63844;50.042;19.224;2023-03-01T05:44:27;100216.25;;;-5.68;78.82
75247;BME280;63844;50.042;19.224;2023-03-01T05:46:54;100215.73;;;-5.67;78.79
75247;BME280;63844;50.042;19.224;2023-03-01T05:49:21;100220.29;;;-5.65;78.56
75247;BME280;63844;50.042;19.224;2023-03-01T05:51:52;100218.95;;;-5.61;79.40
75247;BME280;63844;50.042;19.224;2023-03-01T05:54:21;100220.58;;;-5.58;78.30
75247;BME280;63844;50.042;19.224;2023-03-01T05:56:48;100220.08;;;-5.57;78.45
75247;BME280;63844;50.042;19.224;2023-03-01T05:59:14;100224.42;;;-5.55;78.01
75247;BME280;63844;50.042;19.224;2023-03-01T06:01:42;100220.20;;;-5.50;79.97
75247;BME280;63844;50.042;19.224;2023-03-01T06:04:09;100215.98;;;-5.46;81.51
75247;BME280;63844;50.042;19.224;2023-03-01T06:06:36;100219.50;;;-5.42;79.18
75247;BME280;63844;50.042;19.224;2023-03-01T06:09:07;100225.18;;;-5.42;82.21
75247;BME280;63844;50.042;19.224;2023-03-01T06:11:36;100233.54;;;-5.38;80.11
75247;BME280;63844;50.042;19.224;2023-03-01T06:14:05;100238.80;;;-5.33;82.03
75247;BME280;63844;50.042;19.224;2023-03-01T06:16:32;100229.56;;;-5.29;83.37
75247;BME280;63844;50.042;19.224;2023-03-01T06:18:59;100223.61;;;-5.25;84.32
75247;BME280;63844;50.042;19.224;2023-03-01T06:21:25;100233.17;;;-5.20;81.70
75247;BME280;63844;50.042;19.224;2023-03-01T06:23:52;100235.52;;;-5.14;81.54
75247;BME280;63844;50.042;19.224;2023-03-01T06:26:19;100229.59;;;-5.08;81.86
75247;BME280;63844;50.042;19.224;2023-03-01T06:28:45;100231.19;;;-5.04;84.27
75247;BME280;63844;50.042;19.224;2023-03-01T06:31:12;100230.38;;;-5.01;82.15
75247;BME280;63844;50.042;19.224;2023-03-01T06:33:39;100236.55;;;-4.94;79.99
75247;BME280;63844;50.042;19.224;2023-03-01T06:36:07;100234.77;;;-4.86;79.51
75247;BME280;63844;50.042;19.224;2023-03-01T06:38:34;100234.02;;;-4.80;79.92
75247;BME280;63844;50.042;19.224;2023-03-01T06:41:00;100231.52;;;-4.73;79.88
75247;BME280;63844;50.042;19.224;2023-03-01T06:43:27;100234.39;;;-4.66;80.91
75247;BME280;63844;50.042;19.224;2023-03-01T06:45:54;100232.30;;;-4.56;82.43
75247;BME280;63844;50.042;19.224;2023-03-01T06:48:20;100233.59;;;-4.39;83.67
75247;BME280;63844;50.042;19.224;2023-03-01T06:50:47;100231.91;;;-4.23;82.57
75247;BME280;63844;50.042;19.224;2023-03-01T06:53:14;100230.11;;;-4.16;83.77
75247;BME280;63844;50.042;19.224;2023-03-01T06:55:41;100230.48;;;-4.13;84.55
75247;BME280;63844;50.042;19.224;2023-03-01T06:58:13;100232.14;;;-4.05;84.03
75247;BME280;63844;50.042;19.224;2023-03-01T07:00:40;100231.67;;;-4.01;84.10
75247;BME280;63844;50.042;19.224;2023-03-01T07:03:10;100231.60;;;-3.94;80.51
75247;BME280;63844;50.042;19.224;2023-03-01T07:05:37;100232.40;;;-3.86;80.21
75247;BME280;63844;50.042;19.224;2023-03-01T07:08:04;100230.36;;;-3.82;81.56
75247;BME280;63844;50.042;19.224;2023-03-01T07:10:31;100225.78;;;-3.74;80.14
75247;BME280;63844;50.042;19.224;2023-03-01T07:12:59;100224.48;;;-3.66;80.39
75247;BME280;63844;50.042;19.224;2023-03-01T07:15:26;100229.08;;;-3.58;83.84
75247;BME280;63844;50.042;19.224;2023-03-01T07:17:53;100230.20;;;-3.50;84.96
75247;BME280;63844;50.042;19.224;2023-03-01T07:20:20;100234.31;;;-3.39;85.10
75247;BME280;63844;50.042;19.224;2023-03-01T07:22:52;100230.09;;;-3.27;84.79
75247;BME280;63844;50.042;19.224;2023-03-01T07:25:19;100225.50;;;-3.18;83.80
75247;BME280;63844;50.042;19.224;2023-03-01T07:27:50;100222.63;;;-3.11;84.82
75247;BME280;63844;50.042;19.224;2023-03-01T07:30:19;100214.91;;;-3.03;84.92
75247;BME280;63844;50.042;19.224;2023-03-01T07:32:46;100209.09;;;-2.94;82.01
75247;BME280;63844;50.042;19.224;2023-03-01T07:35:12;100212.62;;;-2.86;83.83
75247;BME280;63844;50.042;19.224;2023-03-01T07:37:41;100205.95;;;-2.76;82.92
75247;BME280;63844;50.042;19.224;2023-03-01T07:40:08;100195.07;;;-2.70;84.13
75247;BME280;63844;50.042;19.224;2023-03-01T07:42:35;100195.13;;;-2.62;83.52
75247;BME280;63844;50.042;19.224;2023-03-01T07:45:02;100186.34;;;-2.55;83.03
75247;BME280;63844;50.042;19.224;2023-03-01T07:47:29;100182.75;;;-2.45;82.67
75247;BME280;63844;50.042;19.224;2023-03-01T07:49:55;100178.30;;;-2.34;82.15
75247;BME280;63844;50.042;19.224;2023-03-01T07:52:22;100172.30;;;-2.21;81.43
75247;BME280;63844;50.042;19.224;2023-03-01T07:54:48;100172.17;;;-2.09;81.10
75247;BME280;63844;50.042;19.224;2023-03-01T07:57:15;100170.14;;;-1.98;81.22
75247;BME280;63844;50.042;19.224;2023-03-01T07:59:41;100171.39;;;-1.87;80.19
75247;BME280;63844;50.042;19.224;2023-03-01T08:02:09;100170.39;;;-1.78;80.52
75247;BME280;63844;50.042;19.224;2023-03-01T08:04:36;100169.02;;;-1.67;80.16
75247;BME280;63844;50.042;19.224;2023-03-01T08:07:05;100173.39;;;-1.55;79.42
75247;BME280;63844;50.042;19.224;2023-03-01T08:09:34;100172.89;;;-1.47;79.36
75247;BME280;63844;50.042;19.224;2023-03-01T08:12:02;100168.90;;;-1.38;79.14
75247;BME280;63844;50.042;19.224;2023-03-01T08:14:31;100169.79;;;-1.26;78.79
75247;BME280;63844;50.042;19.224;2023-03-01T08:16:58;100173.61;;;-1.12;78.78
75247;BME280;63844;50.042;19.224;2023-03-01T08:19:24;100172.41;;;-1.00;78.56
75247;BME280;63844;50.042;19.224;2023-03-01T08:21:51;100173.09;;;-0.93;78.00
75247;BME280;63844;50.042;19.224;2023-03-01T08:24:17;100169.42;;;-0.83;78.23
75247;BME280;63844;50.042;19.224;2023-03-01T08:26:44;100172.04;;;-0.74;77.89
75247;BME280;63844;50.042;19.224;2023-03-01T08:29:11;100170.27;;;-0.64;77.93
75247;BME280;63844;50.042;19.224;2023-03-01T08:31:42;100171.48;;;-0.53;78.27
75247;BME280;63844;50.042;19.224;2023-03-01T08:34:11;100170.59;;;-0.42;77.73
75247;BME280;63844;50.042;19.224;2023-03-01T08:36:42;100168.99;;;-0.33;77.21
75247;BME280;63844;50.042;19.224;2023-03-01T08:39:12;100168.27;;;-0.28;76.98
75247;BME280;63844;50.042;19.224;2023-03-01T08:41:39;100163.55;;;-0.21;76.41
75247;BME280;63844;50.042;19.224;2023-03-01T08:44:07;100158.67;;;-0.14;76.16
75247;BME280;63844;50.042;19.224;2023-03-01T08:46:39;100154.45;;;-0.01;76.54
75247;BME280;63844;50.042;19.224;2023-03-01T08:49:18;100155.98;;;0.04;75.74
75247;BME280;63844;50.042;19.224;2023-03-01T08:51:46;100154.76;;;0.05;75.80
75247;BME280;63844;50.042;19.224;2023-03-01T08:54:15;100154.39;;;0.13;75.60
75247;BME280;63844;50.042;19.224;2023-03-01T08:56:42;100146.54;;;0.13;75.57
75247;BME280;63844;50.042;19.224;2023-03-01T08:59:10;100140.75;;;0.22;75.88
75247;BME280;63844;50.042;19.224;2023-03-01T09:01:37;100138.43;;;0.32;75.48
75247;BME280;63844;50.042;19.224;2023-03-01T09:04:04;100138.04;;;0.40;75.17
75247;BME280;63844;50.042;19.224;2023-03-01T09:06:33;100136.42;;;0.47;75.18
75247;BME280;63844;50.042;19.224;2023-03-01T09:09:01;100142.80;;;0.55;74.80
75247;BME280;63844;50.042;19.224;2023-03-01T09:11:28;100138.89;;;0.65;74.90
75247;BME280;63844;50.042;19.224;2023-03-01T09:13:55;100133.59;;;0.77;75.14
75247;BME280;63844;50.042;19.224;2023-03-01T09:16:23;100138.73;;;0.88;74.10
75247;BME280;63844;50.042;19.224;2023-03-01T09:18:53;100136.08;;;0.93;73.04
75247;BME280;63844;50.042;19.224;2023-03-01T09:21:22;100132.48;;;1.03;74.01
75247;BME280;63844;50.042;19.224;2023-03-01T09:23:50;100135.00;;;1.17;72.37
75247;BME280;63844;50.042;19.224;2023-03-01T09:26:21;100129.63;;;1.30;71.89
75247;BME280;63844;50.042;19.224;2023-03-01T09:28:51;100128.11;;;1.42;70.39
75247;BME280;63844;50.042;19.224;2023-03-01T09:31:20;100131.80;;;1.57;69.61
75247;BME280;63844;50.042;19.224;2023-03-01T09:33:48;100132.17;;;1.69;67.77
75247;BME280;63844;50.042;19.224;2023-03-01T09:36:17;100129.92;;;1.82;69.45
75247;BME280;63844;50.042;19.224;2023-03-01T09:38:45;100128.30;;;1.88;67.24
75247;BME280;63844;50.042;19.224;2023-03-01T09:43:55;100134.66;;;1.94;65.77
75247;BME280;63844;50.042;19.224;2023-03-01T09:46:25;100133.77;;;2.10;66.99
75247;BME280;63844;50.042;19.224;2023-03-01T09:48:57;100133.35;;;2.14;64.57
75247;BME280;63844;50.042;19.224;2023-03-01T09:51:26;100133.61;;;2.21;65.45
75247;BME280;63844;50.042;19.224;2023-03-01T09:53:54;100131.95;;;2.27;64.44
75247;BME280;63844;50.042;19.224;2023-03-01T10:01:56;100131.42;;;2.52;64.00
75247;BME280;63844;50.042;19.224;2023-03-01T10:04:41;100122.02;;;2.52;62.20
75247;BME280;63844;50.042;19.224;2023-03-01T10:09:53;100114.88;;;2.71;62.59
75247;BME280;63844;50.042;19.224;2023-03-01T10:12:24;100114.14;;;2.74;62.57
75247;BME280;63844;50.042;19.224;2023-03-01T10:15:22;100111.27;;;2.79;62.21
75247;BME280;63844;50.042;19.224;2023-03-01T10:18:01;100107.36;;;2.82;62.16
75247;BME280;63844;50.042;19.224;2023-03-01T10:20:43;100104.09;;;2.79;62.35
75247;BME280;63844;50.042;19.224;2023-03-01T10:23:12;100099.37;;;2.79;61.20
75247;BME280;63844;50.042;19.224;2023-03-01T10:31:24;100092.65;;;2.84;61.17
75247;BME280;63844;50.042;19.224;2023-03-01T10:33:55;100093.73;;;2.92;60.58
75247;BME280;63844;50.042;19.224;2023-03-01T10:36:23;100089.07;;;2.99;61.07
75247;BME280;63844;50.042;19.224;2023-03-01T10:38:56;100090.29;;;3.09;59.66
75247;BME280;63844;50.042;19.224;2023-03-01T10:41:27;100091.78;;;3.14;60.60
75247;BME280;63844;50.042;19.224;2023-03-01T10:43:56;100090.55;;;3.24;61.25
75247;BME280;63844;50.042;19.224;2023-03-01T10:49:20;100083.33;;;3.36;58.86
75247;BME280;63844;50.042;19.224;2023-03-01T10:51:53;100081.46;;;3.42;57.39
75247;BME280;63844;50.042;19.224;2023-03-01T10:54:32;100080.63;;;3.57;58.83
75247;BME280;63844;50.042;19.224;2023-03-01T10:57:00;100076.75;;;3.66;59.07
75247;BME280;63844;50.042;19.224;2023-03-01T10:59:28;100074.94;;;3.70;58.35
75247;BME280;63844;50.042;19.224;2023-03-01T11:02:29;100072.55;;;3.75;58.35
75247;BME280;63844;50.042;19.224;2023-03-01T11:05:19;100066.29;;;3.90;57.49
75247;BME280;63844;50.042;19.224;2023-03-01T11:07:54;100064.82;;;4.01;56.91
75247;BME280;63844;50.042;19.224;2023-03-01T11:10:30;100056.77;;;4.09;57.35
75247;BME280;63844;50.042;19.224;2023-03-01T11:13:18;100050.05;;;4.20;58.79
75247;BME280;63844;50.042;19.224;2023-03-01T11:16:06;100046.12;;;4.31;58.00
75247;BME280;63844;50.042;19.224;2023-03-01T11:18:34;100044.02;;;4.37;57.51
75247;BME280;63844;50.042;19.224;2023-03-01T11:21:01;100040.29;;;4.39;57.08
75247;BME280;63844;50.042;19.224;2023-03-01T11:23:30;100041.29;;;4.35;57.00
75247;BME280;63844;50.042;19.224;2023-03-01T11:26:00;100040.29;;;4.25;55.62
75247;BME280;63844;50.042;19.224;2023-03-01T11:28:29;100034.64;;;4.26;56.75
75247;BME280;63844;50.042;19.224;2023-03-01T11:31:16;100032.41;;;4.32;56.17
75247;BME280;63844;50.042;19.224;2023-03-01T11:36:31;100028.83;;;4.42;56.72
75247;BME280;63844;50.042;19.224;2023-03-01T11:39:10;100023.76;;;4.63;57.53
75247;BME280;63844;50.042;19.224;2023-03-01T11:41:40;100023.98;;;4.75;56.49
75247;BME280;63844;50.042;19.224;2023-03-01T11:44:17;100020.02;;;4.86;56.83
75247;BME280;63844;50.042;19.224;2023-03-01T11:49:55;100013.63;;;5.08;54.26
75247;BME280;63844;50.042;19.224;2023-03-01T11:52:48;100011.42;;;5.19;56.90
75247;BME280;63844;50.042;19.224;2023-03-01T12:01:00;100003.84;;;5.27;53.32
75247;BME280;63844;50.042;19.224;2023-03-01T12:03:38;100005.15;;;5.35;52.82
75247;BME280;63844;50.042;19.224;2023-03-01T12:09:37;100004.70;;;5.70;52.82
75247;BME280;63844;50.042;19.224;2023-03-01T12:12:22;99998.35;;;5.70;50.97
75247;BME280;63844;50.042;19.224;2023-03-01T12:23:02;99984.02;;;5.85;50.90
75247;BME280;63844;50.042;19.224;2023-03-01T12:42:59;99947.52;;;6.50;49.04
75247;BME280;63844;50.042;19.224;2023-03-01T12:51:11;99932.42;;;7.23;49.10
75247;BME280;63844;50.042;19.224;2023-03-01T12:53:51;99929.61;;;7.36;47.05
75247;BME280;63844;50.042;19.224;2023-03-01T12:56:21;99930.73;;;7.63;49.75
75247;BME280;63844;50.042;19.224;2023-03-01T12:59:15;99928.17;;;7.78;47.24
75247;BME280;63844;50.042;19.224;2023-03-01T13:07:52;99927.22;;;8.37;48.77
75247;BME280;63844;50.042;19.224;2023-03-01T13:10:42;99923.15;;;8.50;47.12
75247;BME280;63844;50.042;19.224;2023-03-01T13:13:14;99923.23;;;8.57;46.67
75247;BME280;63844;50.042;19.224;2023-03-01T13:15:45;99923.98;;;8.68;47.36
75247;BME280;63844;50.042;19.224;2023-03-01T13:20:47;99918.61;;;9.06;44.44
75247;BME280;63844;50.042;19.224;2023-03-01T13:28:52;99910.06;;;9.11;44.43
75247;BME280;63844;50.042;19.224;2023-03-01T13:33:53;99904.31;;;9.09;45.79
75247;BME280;63844;50.042;19.224;2023-03-01T13:36:46;99903.31;;;9.20;45.50
75247;BME280;63844;50.042;19.224;2023-03-01T13:39:40;99899.89;;;9.25;45.10
75247;BME280;63844;50.042;19.224;2023-03-01T13:42:33;99892.84;;;9.36;44.00
75247;BME280;63844;50.042;19.224;2023-03-01T13:45:00;99890.58;;;9.54;44.40
75247;BME280;63844;50.042;19.224;2023-03-01T13:47:27;99891.64;;;9.65;44.03
75247;BME280;63844;50.042;19.224;2023-03-01T13:50:02;99889.92;;;9.75;43.45
75247;BME280;63844;50.042;19.224;2023-03-01T13:52:34;99885.60;;;9.99;43.11
75247;BME280;63844;50.042;19.224;2023-03-01T13:55:16;99884.08;;;9.93;42.52
75247;BME280;63844;50.042;19.224;2023-03-01T13:57:49;99883.86;;;9.91;41.94
75247;BME280;63844;50.042;19.224;2023-03-01T14:00:32;99881.94;;;9.80;42.95
75247;BME280;63844;50.042;19.224;2023-03-01T14:03:19;99880.61;;;9.85;43.61
75247;BME280;63844;50.042;19.224;2023-03-01T14:06:13;99883.19;;;9.69;42.51
75247;BME280;63844;50.042;19.224;2023-03-01T14:08:40;99880.71;;;9.76;42.44
75247;BME280;63844;50.042;19.224;2023-03-01T14:11:43;99875.80;;;9.75;41.94
75247;BME280;63844;50.042;19.224;2023-03-01T14:14:42;99874.52;;;9.80;42.78
75247;BME280;63844;50.042;19.224;2023-03-01T14:20:18;99865.17;;;9.50;42.96
75247;BME280;63844;50.042;19.224;2023-03-01T14:22:46;99860.35;;;9.54;43.15
75247;BME280;63844;50.042;19.224;2023-03-01T14:25:22;99857.94;;;9.46;43.22
75247;BME280;63844;50.042;19.224;2023-03-01T14:28:00;99853.10;;;9.62;42.29
75247;BME280;63844;50.042;19.224;2023-03-01T14:30:34;99851.41;;;9.71;42.12
75247;BME280;63844;50.042;19.224;2023-03-01T14:33:06;99846.64;;;9.96;43.62
75247;BME280;63844;50.042;19.224;2023-03-01T14:35:53;99841.33;;;10.00;42.20
75247;BME280;63844;50.042;19.224;2023-03-01T14:38:28;99842.95;;;10.24;42.44